Decoded Metar for LEVC (VALENCIA in SPAIN) (IATA:VLC) | Meteo·Mobile Aviation Weather
aviador You're here:

LEVC Decoded Metar

VALENCIA in SPAIN
Report Time2018-11-17 02:00:00
UTC Time2018-11-17 02:16:07
Flight Rules vfr VFR
Wind020° at 04 kt
W.Decomp.*RWY 30: 0.6 kt HW 4.0 kt RCW
W.Rank020° ranks 25
Current wind is below 020° avg. (5.4)
Visibility8000 m
Phenomena:N/A
Clouds:Scattered 013 Hf
Broken 060 Hf
Expected CloudBase > 400 ft AGL from Temp-Dew spread
Ceiling6,000 ft
Temp16°C (ISA +1)
Dew Point15°C (94% RH)
QNH1018 hPa
Density Alt427 ft
Elevation203 ft
Report Wrong Elevation
Raw Report
LEVC 170200Z 02004KT 350V050 8000 SCT013 BKN060 16/15 Q1018
NOSIG=

Extra information for LEVC:More info

Metar Taf Metar & Taf Last 4 Metars F.Rules Stats Wind Profile Meteogram Temp Stats Airport Information Weather charts Add Link Nearby VenuesMetar ALERT Operation Metar Decoded Social comments

Webcam Valencia